Detroit Metro, MI

8:18 AM EDT on June 29, 2017 (GMT -0400)
Ypsilanti Twp - East | | Change Station

Elev 764 ft 42.25 °N, 83.59 °W | Updated 59 days ago

Overcast
Overcast
54.8 °F
Feels Like 54.8 °F
N
2.0
Wind Variable Wind from SSE

Today
High -- | Low -- °F
--% Chance of Precip.
Yesterday
High -- | Low -- °F
Precip. -- in
Pressure 29.83 in
Visibility 10.0 miles
Clouds Scattered Clouds 6500 ft
Mostly Cloudy 13000 ft
Overcast 22000 ft
Dew Point 55.0 °F
Humidity 100%
Rainfall in
Snow Depth Not available.
6:00 AM 9:13 PM
Waxing Crescent, 35% visible
METAR KDTW 291153Z 21015KT 10SM SCT065 BKN130 OVC220 22/14 A2984 RMK AO2 SLP101 60000 T02170139 10222 20206 56020
Pressure 29.83 in
Visibility 10.0 miles
Clouds Scattered Clouds 6500 ft
Mostly Cloudy 13000 ft
Overcast 22000 ft
Dew Point 55.0 °F
Humidity 100%
Rainfall in
Snow Depth Not available.
6:00 AM 9:13 PM
Waxing Crescent, 35% visible
METAR KDTW 291153Z 21015KT 10SM SCT065 BKN130 OVC220 22/14 A2984 RMK AO2 SLP101 60000 T02170139 10222 20206 56020

Get Severe Weather Alerts

Thanks for signing up!

Be on the lookout for a verification email in your inbox.

You'll start receiving the daily forecast at 6 AM.

×

10-Day Weather Forecast

Almanac

Astronomy

Jun. 29, 2017 Rise Set
Actual Time
Civil Twilight
Nautical Twilight
Astronomical Twilight
Moon
Length of Visible Light
Length of Day
Tomorrow will be .
, % of the Moon is Illuminated

Today's Extremes

State Highs State Lows

Community

WunderPhotos

Category 6

Welcome to Category 6. This is the collective home for Weather Underground's featured writeups by Dr. Jeff Masters (right), Bob Henson (left), Chris Burt, and other regular contributors.

Nearby

Air Quality

  Air Quality AQ Index Pollutant
Not available.

Snow Depth

Station Depth Elevation

Earthquake Activity

City Distance Mag. Time & Date
Minimum magnitude displayed is 2.5.

Coastal Water Temperatures

Place Temperature

Stations

Nearby Weather Stations

Station Location Temp. Windchill Dew Point Humidity Wind Precip. Elev Updated Type
                   

Watches & Warnings

There are currently no watches in effect.